Time;durP1;ratioP1;P1;durP2;ratioP2;P2;SDS_P1;SDS_P2;PMS_P1;PMS_P2;Temp;Humidity;BMP_temperature;BMP_pressure;BME280_temperature;BME280_humidity;BME280_pressure;Samples;Min_cycle;Max_cycle;Signal;HPM_P1;HPM_P2
2022/12/30 00:00:48;;;;;;;0.63;0.10;;;;;;;;;;4984347;28;20023;-83
2022/12/30 00:03:14;;;;;;;0.40;0.40;;;;;;;;;;4984473;28;20027;-82
2022/12/30 00:05:40;;;;;;;0.10;0.10;;;;;;;;;;4979572;28;21176;-82
2022/12/30 00:08:45;;;;;;;1.52;0.22;;;;;;;;;;4983410;28;20066;-81
2022/12/30 00:10:55;;;;;;;0.90;0.25;;;;;;;;;;4981971;28;20053;-82
2022/12/30 00:35:31;;;;;;;0.82;0.40;;;;;;;;;;4975329;28;20174;-82
2022/12/30 00:37:57;;;;;;;2.85;0.10;;;;;;;;;;4982284;28;20070;-82
2022/12/30 00:40:23;;;;;;;1.10;0.30;;;;;;;;;;4985668;28;20073;-80
2022/12/30 00:43:07;;;;;;;0.80;0.43;;;;;;;;;;4983554;28;20077;-82
2022/12/30 00:45:34;;;;;;;3.95;0.43;;;;;;;;;;4980739;28;20153;-83
2022/12/30 00:48:00;;;;;;;0.30;0.30;;;;;;;;;;4982605;28;20614;-81
2022/12/30 00:56:13;;;;;;;0.25;0.10;;;;;;;;;;4978291;28;20041;-80
2022/12/30 00:58:39;;;;;;;1.60;0.65;;;;;;;;;;4977850;28;20163;-82
2022/12/30 01:01:05;;;;;;;1.10;0.30;;;;;;;;;;4982239;28;20018;-81
2022/12/30 01:03:31;;;;;;;1.83;0.22;;;;;;;;;;4977869;28;20034;-85
2022/12/30 01:05:57;;;;;;;0.63;0.30;;;;;;;;;;4980201;28;20034;-81
2022/12/30 01:08:23;;;;;;;0.10;0.10;;;;;;;;;;4984536;28;20026;-82
2022/12/30 01:10:49;;;;;;;1.15;0.35;;;;;;;;;;4979974;28;20210;-81
2022/12/30 01:13:15;;;;;;;3.00;0.75;;;;;;;;;;4983653;28;20565;-84
2022/12/30 01:15:41;;;;;;;0.43;0.40;;;;;;;;;;4978276;28;20126;-81
2022/12/30 01:18:07;;;;;;;0.28;0.20;;;;;;;;;;4984280;28;20053;-80
2022/12/30 01:20:35;;;;;;;3.92;0.63;;;;;;;;;;4983215;28;20022;-84
2022/12/30 01:23:01;;;;;;;4.10;0.10;;;;;;;;;;4976707;28;20085;-83
2022/12/30 01:25:27;;;;;;;1.15;0.32;;;;;;;;;;4980028;28;20030;-84
2022/12/30 01:27:53;;;;;;;1.58;0.38;;;;;;;;;;4984327;28;21862;-83
2022/12/30 01:30:19;;;;;;;0.35;0.20;;;;;;;;;;4970883;28;20045;-83
2022/12/30 01:32:45;;;;;;;0.57;0.28;;;;;;;;;;4982233;28;20035;-81
2022/12/30 01:35:11;;;;;;;0.43;0.20;;;;;;;;;;4981320;28;20102;-84
2022/12/30 01:37:37;;;;;;;0.30;0.20;;;;;;;;;;4980911;28;20046;-84
2022/12/30 01:40:03;;;;;;;1.77;0.38;;;;;;;;;;4984651;28;20149;-83
2022/12/30 01:42:35;;;;;;;0.63;0.20;;;6.10;99.90;;;;;;4982975;28;20026;-81
2022/12/30 01:45:05;;;;;;;0.65;0.20;;;;;;;;;;4983841;28;20030;-82
2022/12/30 01:47:40;;;;;;;0.43;0.30;;;;;;;;;;4980363;28;20057;-81
2022/12/30 01:50:06;;;;;;;0.45;0.38;;;;;;;;;;4979398;28;20046;-82
2022/12/30 01:52:34;;;;;;;8.52;0.43;;;;;;;;;;4979435;28;20026;-83
2022/12/30 01:55:05;;;;;;;1.02;0.25;;;;;;;;;;4989540;28;20041;-82
2022/12/30 01:57:31;;;;;;;0.32;0.22;;;;;;;;;;4975743;28;20046;-82
2022/12/30 01:59:57;;;;;;;3.85;0.40;;;;;;;;;;4981259;28;20027;-83
2022/12/30 02:02:23;;;;;;;4.43;0.52;;;;;;;;;;4980415;28;20415;-82
2022/12/30 02:04:49;;;;;;;1.33;0.43;;;;;;;;;;4978417;28;20101;-82
2022/12/30 02:07:25;;;;;;;5.05;0.40;;;;;;;;;;4992833;28;20972;-81
2022/12/30 02:09:52;;;;;;;3.83;1.15;;;;;;;;;;4987144;28;20061;-81
2022/12/30 02:12:18;;;;;;;1.45;0.60;;;;;;;;;;4979210;28;20494;-83
2022/12/30 02:14:45;;;;;;;0.75;0.55;;;;;;;;;;4976066;28;20030;-83
2022/12/30 02:17:27;;;;;;;0.77;0.50;;;6.00;99.90;;;;;;4981068;28;20031;-84
2022/12/30 02:20:03;;;;;;;0.10;0.10;;;;;;;;;;4979696;28;20475;-84
2022/12/30 02:22:50;;;;;;;1.27;0.38;;;6.00;99.90;;;;;;4988255;28;20073;-83
2022/12/30 02:25:43;;;;;;;3.17;0.40;;;5.10;99.90;;;;;;4990512;28;20092;-81
2022/12/30 02:28:22;;;;;;;3.03;0.63;;;;;;;;;;4989003;28;20483;-84
2022/12/30 02:31:07;;;;;;;2.22;0.30;;;;;;;;;;4994735;28;20111;-84
2022/12/30 02:33:52;;;;;;;0.63;0.40;;;;;;;;;;5000191;28;20098;-82
2022/12/30 02:36:28;;;;;;;0.20;0.20;;;;;;;;;;5001207;28;20041;-84
2022/12/30 02:39:17;;;;;;;1.33;0.35;;;;;;;;;;4997131;28;20027;-82
2022/12/30 02:44:39;;;;;;;0.70;0.30;;;;;;;;;;4984673;28;20129;-81
2022/12/30 02:47:23;;;;;;;0.52;0.40;;;;;;;;;;4984235;28;20030;-82
2022/12/30 02:52:39;;;;;;;0.80;0.40;;;;;;;;;;4981984;28;20073;-82
2022/12/30 02:55:06;;;;;;;2.00;0.47;;;;;;;;;;4987676;28;20026;-80
2022/12/30 02:57:33;;;;;;;2.67;0.63;;;;;;;;;;4984023;28;20519;-82
2022/12/30 03:05:59;;;;;;;0.30;0.13;;;;;;;;;;4983907;28;22134;-80
2022/12/30 03:08:31;;;;;;;0.17;0.13;;;;;;;;;;4982768;28;20041;-82
2022/12/30 03:11:16;;;;;;;1.83;0.30;;;;;;;;;;4983377;28;20026;-82
2022/12/30 03:13:42;;;;;;;2.75;0.50;;;;;;;;;;4982570;28;20512;-81
2022/12/30 03:16:11;;;;;;;1.95;0.30;;;;;;;;;;4980126;28;20033;-80
2022/12/30 03:18:37;;;;;;;1.65;0.52;;;;;;;;;;4981713;28;20045;-83
2022/12/30 03:21:05;;;;;;;1.17;0.32;;;;;;;;;;4980204;28;20041;-80
2022/12/30 03:29:06;;;;;;;0.60;0.20;;;4.30;99.90;;;;;;4978323;28;20042;-82
2022/12/30 03:31:32;;;;;;;0.77;0.40;;;;;;;;;;4987123;28;20031;-83
2022/12/30 03:33:58;;;;;;;0.20;0.20;;;;;;;;;;4977655;28;20030;-84
2022/12/30 03:36:29;;;;;;;0.30;0.28;;;;;;;;;;4983084;28;20054;-82
2022/12/30 03:38:59;;;;;;;0.30;0.30;;;;;;;;;;4984215;28;20053;-81
2022/12/30 03:41:25;;;;;;;2.08;0.55;;;;;;;;;;4984211;28;20093;-82
2022/12/30 03:43:51;;;;;;;0.43;0.20;;;;;;;;;;4979637;28;20062;-83
2022/12/30 03:46:19;;;;;;;1.67;0.20;;;;;;;;;;4982332;28;20118;-83
2022/12/30 03:48:45;;;;;;;0.55;0.38;;;;;;;;;;4979314;28;20109;-84
2022/12/30 03:51:11;;;;;;;0.65;0.57;;;;;;;;;;4976880;28;23578;-81
2022/12/30 03:53:37;;;;;;;0.50;0.47;;;;;;;;;;4989492;28;20104;-80
2022/12/30 03:56:03;;;;;;;1.42;0.40;;;;;;;;;;4979403;28;20054;-81
2022/12/30 03:58:29;;;;;;;2.22;0.40;;;;;;;;;;4978394;28;20570;-82
2022/12/30 04:00:55;;;;;;;0.20;0.20;;;;;;;;;;4978553;28;20080;-82
2022/12/30 04:03:21;;;;;;;1.95;0.50;;;;;;;;;;4979596;28;20035;-83
2022/12/30 04:05:47;;;;;;;2.83;0.70;;;;;;;;;;4979625;28;20030;-85
2022/12/30 04:08:13;;;;;;;1.38;0.30;;;;;;;;;;4980742;28;20037;-82
2022/12/30 04:10:39;;;;;;;0.30;0.30;;;;;;;;;;4983679;28;20057;-81
2022/12/30 04:13:05;;;;;;;0.55;0.40;;;;;;;;;;4981953;28;20018;-82
2022/12/30 04:15:31;;;;;;;3.00;0.40;;;;;;;;;;4981056;28;20034;-82
2022/12/30 04:17:56;;;;;;;0.82;0.43;;;;;;;;;;4980706;28;20042;-82
2022/12/30 04:20:22;;;;;;;1.88;0.60;;;;;;;;;;4976850;28;20023;-84
2022/12/30 04:22:48;;;;;;;0.35;0.25;;;;;;;;;;4986392;28;20165;-83
2022/12/30 04:25:14;;;;;;;0.55;0.38;;;;;;;;;;4981308;28;20022;-82
2022/12/30 04:27:40;;;;;;;1.75;0.35;;;;;;;;;;4981684;28;20302;-82
2022/12/30 04:30:07;;;;;;;1.50;0.55;;;;;;;;;;4982256;28;20042;-83
2022/12/30 04:32:34;;;;;;;1.67;0.73;;;;;;;;;;4987212;28;20109;-81
2022/12/30 04:35:00;;;;;;;2.63;0.70;;;;;;;;;;4980168;28;20114;-84
2022/12/30 04:37:26;;;;;;;0.63;0.40;;;;;;;;;;4985751;28;20073;-84
2022/12/30 04:39:52;;;;;;;0.77;0.43;;;;;;;;;;4977967;28;20023;-82
2022/12/30 04:42:18;;;;;;;1.60;0.45;;;;;;;;;;4982289;28;20663;-82
2022/12/30 04:44:44;;;;;;;0.32;0.30;;;;;;;;;;4984809;28;20041;-84
2022/12/30 04:47:10;;;;;;;4.32;0.85;;;;;;;;;;4981126;28;20042;-83
2022/12/30 04:49:36;;;;;;;0.30;0.30;;;;;;;;;;4975091;28;20677;-81
2022/12/30 04:52:02;;;;;;;2.25;1.55;;;;;;;;;;4980166;28;20022;-83
2022/12/30 04:54:28;;;;;;;0.70;0.40;;;;;;;;;;4985275;28;20589;-81
2022/12/30 04:56:54;;;;;;;2.58;0.43;;;;;;;;;;4987256;28;20023;-83
2022/12/30 04:59:20;;;;;;;0.73;0.52;;;;;;;;;;4985071;28;20109;-82
2022/12/30 05:01:47;;;;;;;2.95;0.50;;;;;;;;;;4978006;28;20050;-84
2022/12/30 05:04:13;;;;;;;3.13;0.47;;;;;;;;;;4981261;28;20026;-81
2022/12/30 05:06:39;;;;;;;4.88;0.85;;;;;;;;;;4991853;28;20514;-85
2022/12/30 05:09:05;;;;;;;1.92;1.00;;;;;;;;;;4987896;28;20030;-80
2022/12/30 05:11:31;;;;;;;0.85;0.60;;;;;;;;;;4985798;28;20033;-81
2022/12/30 05:13:57;;;;;;;1.75;0.75;;;;;;;;;;4981137;28;20034;-83
2022/12/30 05:16:23;;;;;;;1.27;0.65;;;;;;;;;;4977623;28;20026;-81
2022/12/30 05:18:49;;;;;;;2.58;0.77;;;;;;;;;;4980737;28;20038;-82
2022/12/30 05:21:15;;;;;;;0.43;0.32;;;;;;;;;;4984918;28;20049;-82
2022/12/30 05:26:25;;;;;;;1.15;0.60;;;;;;;;;;4988293;28;20076;-83
2022/12/30 05:28:51;;;;;;;0.52;0.45;;;;;;;;;;4983414;28;20042;-83
2022/12/30 05:31:18;;;;;;;0.98;0.47;;;;;;;;;;4985032;28;20034;-82
2022/12/30 05:33:44;;;;;;;0.50;0.50;;;;;;;;;;4983868;28;20030;-82
2022/12/30 05:36:10;;;;;;;1.70;0.77;;;;;;;;;;4989728;28;20041;-81
2022/12/30 05:38:36;;;;;;;0.80;0.50;;;;;;;;;;4972280;28;20043;-83
2022/12/30 05:41:03;;;;;;;5.93;0.60;;;;;;;;;;4980739;28;20391;-81
2022/12/30 05:43:29;;;;;;;1.48;0.73;;;;;;;;;;4983133;28;20574;-82
2022/12/30 05:45:55;;;;;;;1.73;0.75;;;;;;;;;;4991911;28;20130;-82
2022/12/30 05:48:20;;;;;;;0.82;0.45;;;;;;;;;;4986574;28;20511;-82
2022/12/30 05:50:50;;;;;;;1.08;0.70;;;;;;;;;;4986351;28;20053;-79
2022/12/30 05:53:16;;;;;;;1.20;0.85;;;;;;;;;;4990131;28;20030;-81
2022/12/30 05:55:42;;;;;;;1.23;0.85;;;;;;;;;;4987733;28;20033;-84
2022/12/30 05:58:08;;;;;;;0.93;0.55;;;;;;;;;;4992352;28;20641;-83
2022/12/30 06:00:34;;;;;;;1.52;0.95;;;;;;;;;;4989167;28;20142;-82
2022/12/30 06:03:00;;;;;;;0.90;0.80;;;;;;;;;;4980979;28;20563;-82
2022/12/30 06:05:26;;;;;;;0.65;0.45;;;;;;;;;;4984939;28;20050;-80
2022/12/30 06:07:52;;;;;;;0.43;0.30;;;;;;;;;;4995713;28;20038;-81
2022/12/30 06:10:18;;;;;;;0.47;0.40;;;;;;;;;;4983458;28;20082;-81
2022/12/30 06:12:44;;;;;;;1.45;0.50;;;;;;;;;;4990687;28;20026;-82
2022/12/30 06:15:10;;;;;;;4.05;1.73;;;;;;;;;;4984912;28;20030;-83
2022/12/30 06:17:36;;;;;;;3.47;0.88;;;;;;;;;;4980354;28;20041;-84
2022/12/30 06:20:02;;;;;;;18.17;6.28;;;;;;;;;;4981417;28;20066;-83
2022/12/30 06:22:28;;;;;;;61.00;21.05;;;;;;;;;;4982500;28;20034;-82
2022/12/30 06:24:54;;;;;;;26.90;9.23;;;;;;;;;;4995122;28;20069;-82
2022/12/30 06:27:20;;;;;;;1.08;0.98;;;;;;;;;;4995518;28;20027;-80
2022/12/30 06:29:47;;;;;;;3.08;1.50;;;;;;;;;;4993604;28;20046;-81
2022/12/30 06:32:13;;;;;;;3.65;1.60;;;;;;;;;;4986257;28;20164;-82
2022/12/30 06:34:39;;;;;;;2.10;1.33;;;;;;;;;;4984271;28;20054;-81
2022/12/30 06:37:04;;;;;;;0.80;0.65;;;;;;;;;;4988908;28;20068;-83
2022/12/30 06:39:30;;;;;;;2.55;1.40;;;;;;;;;;4980956;28;20038;-83
2022/12/30 06:41:56;;;;;;;1.45;0.82;;;;;;;;;;4988002;28;20376;-81
2022/12/30 06:44:22;;;;;;;3.97;1.20;;;;;;;;;;4988025;28;20058;-81
2022/12/30 06:46:48;;;;;;;2.45;1.15;;;2.00;99.90;;;;;;4994369;28;20015;-82
2022/12/30 06:49:14;;;;;;;1.77;1.10;;;;;;;;;;4986872;28;20050;-82
2022/12/30 06:51:40;;;;;;;4.05;2.30;;;;;;;;;;4992943;28;20026;-81
2022/12/30 06:54:06;;;;;;;2.17;1.05;;;;;;;;;;4989268;28;20026;-82
2022/12/30 06:56:32;;;;;;;3.47;1.25;;;;;;;;;;4984695;28;20053;-81
2022/12/30 06:58:58;;;;;;;4.65;2.58;;;;;;;;;;4981687;28;21490;-81
2022/12/30 07:01:24;;;;;;;4.55;1.30;;;;;;;;;;4988523;28;20065;-82
2022/12/30 07:03:50;;;;;;;2.47;1.20;;;;;;;;;;4983457;28;20042;-81
2022/12/30 07:06:16;;;;;;;1.50;0.85;;;;;;;;;;4989179;28;20035;-82
2022/12/30 07:08:42;;;;;;;1.33;0.77;;;;;;;;;;4985670;28;20147;-81
2022/12/30 07:11:08;;;;;;;4.00;1.05;;;;;;;;;;4978142;28;20070;-79
2022/12/30 07:13:34;;;;;;;2.17;1.15;;;;;;;;;;4984373;28;20029;-82
2022/12/30 07:16:00;;;;;;;1.25;1.15;;;;;;;;;;4985669;28;20114;-81
2022/12/30 07:18:26;;;;;;;1.63;0.80;;;;;;;;;;4986093;28;20030;-83
2022/12/30 07:20:51;;;;;;;1.40;0.93;;;;;;;;;;4987766;28;20033;-82
2022/12/30 07:23:17;;;;;;;1.40;1.00;;;;;;;;;;4977262;28;20035;-82
2022/12/30 07:25:45;;;;;;;1.70;0.93;;;;;;;;;;4985816;28;20064;-81
2022/12/30 07:28:11;;;;;;;1.58;1.02;;;;;;;;;;4993795;28;20477;-82
2022/12/30 07:30:37;;;;;;;1.25;1.02;;;;;;;;;;4985791;28;20039;-80
2022/12/30 07:33:03;;;;;;;1.02;0.73;;;;;;;;;;4987423;28;20547;-82
2022/12/30 07:35:29;;;;;;;1.20;0.73;;;;;;;;;;4991029;28;20030;-85
2022/12/30 07:37:55;;;;;;;0.70;0.68;;;;;;;;;;4992468;28;20268;-83
2022/12/30 07:40:21;;;;;;;1.00;0.63;;;;;;;;;;4987055;28;20026;-83
2022/12/30 07:42:47;;;;;;;0.65;0.65;;;;;;;;;;4996901;28;20030;-83
2022/12/30 07:45:13;;;;;;;1.45;0.93;;;;;;;;;;4988908;28;20049;-84
2022/12/30 07:47:42;;;;;;;2.47;1.45;;;;;;;;;;4995989;28;20034;-84
2022/12/30 07:50:09;;;;;;;1.50;1.05;;;;;;;;;;4991140;28;20114;-83
2022/12/30 07:52:35;;;;;;;1.08;0.98;;;;;;;;;;4990298;28;20069;-85
2022/12/30 07:55:01;;;;;;;1.02;0.93;;;;;;;;;;4988848;28;20027;-84
2022/12/30 07:57:28;;;;;;;0.85;0.50;;;;;;;;;;5006478;28;20030;-84
2022/12/30 07:59:54;;;;;;;0.82;0.47;;;;;;;;;;4998554;28;20030;-82
2022/12/30 08:02:20;;;;;;;1.85;0.50;;;;;;;;;;4994209;28;20042;-83
2022/12/30 08:04:46;;;;;;;1.50;0.70;;;;;;;;;;4984258;28;20030;-82
2022/12/30 08:07:12;;;;;;;0.50;0.50;;;;;;;;;;4994021;28;20050;-82
2022/12/30 08:09:38;;;;;;;1.85;0.90;;;;;;;;;;4980030;28;20608;-83
2022/12/30 08:12:04;;;;;;;3.03;1.95;;;;;;;;;;4975612;28;20031;-79
2022/12/30 08:14:30;;;;;;;3.33;1.27;;;;;;;;;;4984138;28;20038;-82
2022/12/30 08:16:56;;;;;;;2.72;2.00;;;;;;;;;;4979319;28;20033;-82
2022/12/30 08:19:22;;;;;;;1.75;1.65;;;1.90;99.90;;;;;;4980790;28;20042;-82
2022/12/30 08:21:48;;;;;;;2.33;1.40;;;;;;;;;;4989018;28;20177;-81
2022/12/30 08:24:14;;;;;;;2.13;1.38;;;;;;;;;;4990295;28;20030;-81
2022/12/30 08:26:40;;;;;;;4.38;1.27;;;;;;;;;;4987870;28;20054;-82
2022/12/30 08:29:06;;;;;;;2.63;1.33;;;;;;;;;;4974963;28;20089;-83
2022/12/30 08:31:32;;;;;;;2.53;1.27;;;;;;;;;;4983088;28;20030;-83
2022/12/30 08:33:58;;;;;;;3.65;2.13;;;;;;;;;;4987183;28;20027;-84
2022/12/30 08:36:26;;;;;;;3.90;1.77;;;;;;;;;;4983837;28;20035;-83
2022/12/30 08:38:54;;;;;;;3.92;1.85;;;;;;;;;;4981936;28;20759;-82
2022/12/30 08:41:24;;;;;;;3.55;1.85;;;;;;;;;;4980438;28;20502;-85
2022/12/30 08:43:51;;;;;;;3.10;1.80;;;;;;;;;;4985410;28;20054;-82
2022/12/30 08:46:17;;;;;;;4.22;1.92;;;;;;;;;;4980935;28;20149;-82
2022/12/30 08:48:43;;;;;;;3.55;1.90;;;;;;;;;;4980188;28;20478;-83
2022/12/30 08:51:10;;;;;;;2.72;2.00;;;;;;;;;;4975133;28;20026;-84
2022/12/30 08:53:36;;;;;;;3.35;1.85;;;;;;;;;;4977814;28;20037;-83
2022/12/30 08:56:02;;;;;;;5.57;1.85;;;;;;;;;;4981640;28;20113;-82
2022/12/30 08:58:28;;;;;;;3.45;1.63;;;;;;;;;;4972778;28;20821;-85
2022/12/30 09:00:54;;;;;;;5.50;1.92;;;;;;;;;;4976467;28;20072;-85
2022/12/30 09:03:20;;;;;;;5.50;2.45;;;;;;;;;;4981191;28;20118;-84
2022/12/30 09:05:49;;;;;;;4.30;2.47;;;;;;;;;;4978525;28;20054;-84
2022/12/30 09:08:15;;;;;;;5.15;2.22;;;;;;;;;;4978417;28;20030;-87
2022/12/30 09:10:42;;;;;;;7.82;2.35;;;;;;;;;;4970156;28;20525;-83
2022/12/30 09:13:08;;;;;;;7.50;4.15;;;;;;;;;;4975700;28;20065;-86
2022/12/30 09:15:34;;;;;;;3.90;2.60;;;;;;;;;;4974567;28;20038;-83
2022/12/30 09:18:00;;;;;;;5.78;2.83;;;;;;;;;;4968730;28;20045;-85
2022/12/30 09:20:26;;;;;;;3.83;2.13;;;;;;;;;;4980204;28;20111;-86
2022/12/30 09:22:52;;;;;;;6.15;2.72;;;;;;;;;;4984127;28;20026;-85
2022/12/30 09:25:18;;;;;;;5.80;3.20;;;;;;;;;;4985159;28;20130;-84
2022/12/30 09:27:43;;;;;;;7.22;3.22;;;;;;;;;;4980253;28;20105;-84
2022/12/30 09:30:10;;;;;;;15.07;6.90;;;;;;;;;;4977867;28;20074;-85
2022/12/30 09:32:36;;;;;;;13.05;5.72;;;;;;;;;;4975273;28;20482;-87
2022/12/30 09:35:02;;;;;;;8.82;4.55;;;;;;;;;;4981861;28;20027;-85
2022/12/30 09:37:28;;;;;;;11.35;4.50;;;;;;;;;;4984782;28;20030;-84
2022/12/30 09:39:54;;;;;;;6.90;3.83;;;;;;;;;;4977727;28;20097;-86
2022/12/30 09:45:22;;;;;;;15.20;8.40;;;;;;;;;;4983116;28;20038;-82
2022/12/30 09:47:53;;;;;;;23.88;10.90;;;;;;;;;;4983052;28;20030;-85
2022/12/30 09:50:19;;;;;;;21.55;10.25;;;;;;;;;;4986438;28;20030;-85
2022/12/30 09:53:03;;;;;;;15.65;9.10;;;;;;;;;;4982133;28;20030;-81
2022/12/30 09:55:32;;;;;;;15.80;6.90;;;;;;;;;;4983873;28;20023;-82
2022/12/30 09:57:59;;;;;;;14.02;5.43;;;;;;;;;;4983932;28;20039;-84
2022/12/30 10:00:29;;;;;;;11.20;6.25;;;;;;;;;;4970624;28;20034;-83
2022/12/30 10:03:05;;;;;;;8.90;4.35;;;;;;;;;;4977834;28;20041;-84
2022/12/30 10:05:50;;;;;;;8.65;3.38;;;;;;;;;;4975684;28;20127;-83
2022/12/30 10:08:34;;;;;;;7.65;1.05;;;;;;;;;;4974257;28;20543;-85
2022/12/30 10:11:26;;;;;;;2.15;1.10;;;;;;;;;;4980896;28;20102;-84
2022/12/30 10:13:58;;;;;;;1.65;0.65;;;;;;;;;;4983785;28;20042;-86
2022/12/30 10:16:27;;;;;;;1.10;0.70;;;6.70;99.90;;;;;;4967767;28;20045;-85
2022/12/30 10:18:58;;;;;;;1.60;1.20;;;;;;;;;;4971175;28;20034;-84
2022/12/30 10:21:50;;;;;;;7.40;1.55;;;6.40;99.90;;;;;;4975879;28;20034;-82
2022/12/30 10:24:34;;;;;;;2.60;1.38;;;;;;;;;;4985493;28;20045;-82
2022/12/30 10:27:06;;;;;;;3.38;1.23;;;;;;;;;;4986422;28;20627;-83
2022/12/30 10:29:34;;;;;;;1.13;0.80;;;;;;;;;;4975016;28;20030;-83
2022/12/30 10:32:18;;;;;;;1.23;0.50;;;;;;;;;;4982892;28;20027;-84
2022/12/30 10:34:45;;;;;;;1.25;0.73;;;7.60;99.90;;;;;;4993391;28;20022;-85
2022/12/30 10:37:14;;;;;;;0.68;0.38;;;;;;;;;;4981445;28;20034;-83
2022/12/30 10:39:50;;;;;;;2.20;0.80;;;;;;;;;;4979917;28;20043;-85
2022/12/30 10:42:23;;;;;;;1.08;0.47;;;;;;;;;;4983986;28;20392;-85
2022/12/30 10:44:49;;;;;;;;;;;;;;;;;;4987554;28;20434;-82
2022/12/30 10:47:21;;;;;;;1.92;0.60;;;;;;;;;;4981819;28;19914;-83
2022/12/30 10:49:56;;;;;;;1.65;0.75;;;;;;;;;;4983584;28;20403;-83
2022/12/30 10:52:22;;;;;;;1.73;0.30;;;;;;;;;;4981058;28;20505;-83
2022/12/30 10:54:48;;;;;;;3.63;0.60;;;;;;;;;;4992085;28;20038;-83
2022/12/30 10:57:16;;;;;;;0.70;0.35;;;;;;;;;;4988863;28;20034;-82
2022/12/30 10:59:43;;;;;;;1.25;0.38;;;;;;;;;;4979920;28;20054;-80
2022/12/30 11:02:27;;;;;;;1.63;0.40;;;;;;;;;;4979135;28;20094;-83
2022/12/30 11:04:53;;;;;;;1.10;0.45;;;;;;;;;;4979565;28;20041;-81
2022/12/30 11:07:20;;;;;;;0.20;0.20;;;;;;;;;;4979577;28;20034;-82
2022/12/30 11:09:47;;;;;;;0.95;0.30;;;;;;;;;;4993133;28;20034;-83
2022/12/30 11:15:07;;;;;;;0.43;0.13;;;;;;;;;;4985565;28;20116;-84
2022/12/30 11:17:52;;;;;;;0.73;0.45;;;;;;;;;;4977084;28;20019;-84
2022/12/30 11:20:18;;;;;;;1.67;0.50;;;;;;;;;;4977662;28;20046;-84
2022/12/30 11:22:48;;;;;;;1.50;0.90;;;;;;;;;;4981556;28;20501;-86
2022/12/30 11:25:17;;;;;;;0.88;0.35;;;;;;;;;;4984265;28;20117;-83
2022/12/30 11:27:44;;;;;;;0.80;0.52;;;;;;;;;;4983995;28;20035;-84
2022/12/30 11:30:23;;;;;;;0.38;0.20;;;;;;;;;;4978571;28;20397;-83
2022/12/30 11:32:49;;;;;;;0.30;0.20;;;;;;;;;;4983256;28;20164;-85
2022/12/30 11:35:31;;;;;;;0.63;0.22;;;;;;;;;;4984561;28;20169;-81
2022/12/30 11:37:57;;;;;;;3.40;0.50;;;;;;;;;;4983564;28;20181;-80
2022/12/30 11:40:36;;;;;;;0.45;0.32;;;;;;;;;;4981577;28;20038;-82
2022/12/30 11:43:05;;;;;;;1.02;0.47;;;;;;;;;;4981615;28;20042;-82
2022/12/30 11:45:31;;;;;;;0.68;0.30;;;;;;;;;;4988260;28;20039;-80
2022/12/30 11:47:58;;;;;;;1.80;0.30;;;;;;;;;;4983486;28;20121;-84
2022/12/30 11:50:24;;;;;;;0.80;0.30;;;;;;;;;;4983884;28;20019;-82
2022/12/30 11:52:51;;;;;;;2.65;0.50;;;;;;;;;;4988891;28;20031;-83
2022/12/30 11:55:24;;;;;;;1.10;0.50;;;;;;;;;;4990779;28;20030;-83
2022/12/30 11:57:51;;;;;;;1.58;0.20;;;;;;;;;;4987239;28;20146;-81
2022/12/30 12:00:17;;;;;;;1.38;0.45;;;;;;;;;;4968511;28;20041;-78
2022/12/30 12:02:47;;;;;;;0.10;0.10;;;;;;;;;;4978136;28;20698;-79
2022/12/30 12:05:22;;;;;;;0.50;0.30;;;;;;;;;;4986350;28;20042;-83
2022/12/30 12:07:50;;;;;;;7.38;1.00;;;;;;;;;;4987520;28;20039;-80
2022/12/30 12:10:19;;;;;;;2.08;0.40;;;;;;;;;;4982461;28;20049;-81
2022/12/30 12:12:51;;;;;;;0.73;0.30;;;;;;;;;;4981811;28;20027;-84
2022/12/30 12:15:18;;;;;;;1.83;0.70;;;;;;;;;;4985927;28;20054;-83
2022/12/30 12:17:52;;;;;;;4.85;0.22;;;;;;;;;;4979599;28;20018;-80
2022/12/30 12:20:21;;;;;;;1.65;0.25;;;;;;;;;;4975824;28;20033;-82
2022/12/30 12:22:56;;;;;;;0.43;0.30;;;;;;;;;;4984840;28;20034;-83
2022/12/30 12:25:24;;;;;;;0.57;0.20;;;;;;;;;;4993166;28;20426;-79
2022/12/30 12:27:51;;;;;;;0.13;0.13;;;;;;;;;;4978634;28;20037;-80
2022/12/30 12:30:17;;;;;;;0.45;0.17;;;9.70;99.90;;;;;;4971612;28;20046;-79
2022/12/30 12:33:08;;;;;;;0.57;0.28;;;;;;;;;;4977412;28;20037;-78
2022/12/30 12:35:36;;;;;;;0.32;0.32;;;;;;;;;;4985913;28;20041;-80
2022/12/30 12:38:21;;;;;;;0.98;0.30;;;9.20;99.90;;;;;;4978160;28;20081;-79
2022/12/30 12:41:03;;;;;;;0.43;0.28;;;9.90;99.90;;;;;;4972001;28;20034;-81
2022/12/30 12:43:29;;;;;;;0.60;0.35;;;;;;;;;;4985725;28;20041;-80
2022/12/30 12:45:55;;;;;;;0.30;0.20;;;;;;;;;;4979831;28;20756;-81
2022/12/30 12:48:24;;;;;;;2.85;0.43;;;;;;;;;;4976807;28;20038;-82
2022/12/30 12:51:02;;;;;;;0.85;0.30;;;9.30;99.90;;;;;;4976726;28;20314;-81
2022/12/30 12:53:54;;;;;;;1.42;0.40;;;9.20;99.90;;;;;;4970780;28;20027;-80
2022/12/30 12:56:29;;;;;;;1.17;0.30;;;;;;;;;;4977692;28;20031;-80
2022/12/30 12:59:25;;;;;;;0.40;0.28;;;9.80;99.90;;;;;;4969815;28;20042;-81
2022/12/30 13:02:11;;;;;;;2.47;0.38;;;;;;;;;;4974468;28;20034;-83
2022/12/30 13:04:46;;;;;;;1.13;0.50;;;;;;;;;;4981529;28;20117;-80
2022/12/30 13:07:30;;;;;;;0.30;0.20;;;9.30;99.90;;;;;;4985928;28;20030;-81
2022/12/30 13:10:31;;;;;;;1.75;0.30;;;9.90;99.90;;;;;;4982080;28;20465;-81
2022/12/30 13:13:11;;;;;;;0.20;0.20;;;9.50;99.90;;;;;;4977611;28;20039;-79
2022/12/30 13:15:37;;;;;;;0.77;0.20;;;;;;;;;;4986565;28;20041;-82
2022/12/30 13:18:08;;;;;;;0.88;0.35;;;8.90;99.90;;;;;;4991730;28;20038;-84
2022/12/30 13:20:41;;;;;;;0.30;0.20;;;;;;;;;;4979801;28;20039;-80
2022/12/30 13:23:08;;;;;;;0.20;0.10;;;;;;;;;;4976191;28;20053;-82
2022/12/30 13:25:39;;;;;;;0.85;0.25;;;9.00;99.90;;;;;;4984554;28;20111;-81
2022/12/30 13:28:05;;;;;;;0.10;0.10;;;;;;;;;;4993127;28;20099;-81
2022/12/30 13:30:40;;;;;;;2.65;0.40;;;;;;;;;;4994220;28;20035;-80
2022/12/30 13:33:16;;;;;;;0.32;0.20;;;;;;;;;;4989204;28;20053;-82
2022/12/30 13:35:55;;;;;;;1.05;0.43;;;;;;;;;;4979487;28;20032;-80
2022/12/30 13:38:30;;;;;;;0.43;0.20;;;;;;;;;;4979772;28;20050;-81
2022/12/30 13:41:19;;;;;;;1.17;0.15;;;;;;;;;;4984379;28;20089;-80
2022/12/30 13:43:50;;;;;;;0.52;0.30;;;;;;;;;;4977137;28;20517;-80
2022/12/30 13:46:17;;;;;;;0.25;0.22;;;;;;;;;;4993122;28;20030;-79
2022/12/30 13:49:15;;;;;;;2.70;0.30;;;9.70;99.90;;;;;;4983352;28;20045;-80
2022/12/30 13:51:41;;;;;;;1.00;0.25;;;;;;;;;;4965432;28;20073;-80
2022/12/30 13:54:25;;;;;;;1.13;0.30;;;;;;;;;;4987941;28;20118;-79
2022/12/30 13:56:52;;;;;;;1.92;0.30;;;;;;;;;;4982633;28;20094;-81
2022/12/30 13:59:23;;;;;;;0.10;0.10;;;;;;;;;;4984378;28;20038;-81
2022/12/30 14:01:49;;;;;;;1.00;0.10;;;;;;;;;;4985675;28;20062;-80
2022/12/30 14:04:15;;;;;;;0.68;0.20;;;;;;;;;;4975878;28;20056;-81
2022/12/30 14:06:52;;;;;;;0.88;0.32;;;8.80;99.90;;;;;;4976783;28;20475;-82
2022/12/30 14:09:28;;;;;;;1.17;0.30;;;9.00;99.90;;;;;;4982794;28;20026;-80
2022/12/30 14:12:03;;;;;;;1.95;0.15;;;;;;;;;;4978976;28;20033;-80
2022/12/30 14:14:30;;;;;;;1.23;0.20;;;;;;;;;;4984881;28;20067;-83
2022/12/30 14:16:58;;;;;;;0.57;0.20;;;;;;;;;;4978810;28;20027;-82
2022/12/30 14:19:37;;;;;;;1.33;0.30;;;;;;;;;;4972753;28;20050;-80
2022/12/30 14:22:03;;;;;;;1.48;0.28;;;;;;;;;;4983478;28;20027;-78
2022/12/30 14:24:33;;;;;;;0.10;0.10;;;;;;;;;;4976191;28;20813;-81
2022/12/30 14:26:59;;;;;;;1.02;0.30;;;;;;;;;;4989897;28;20031;-80
2022/12/30 14:29:35;;;;;;;2.03;0.40;;;8.70;99.90;;;;;;4984771;28;20051;-81
2022/12/30 14:32:03;;;;;;;0.57;0.20;;;8.80;99.90;;;;;;4985803;28;20034;-80
2022/12/30 14:34:37;;;;;;;4.13;1.15;;;;;;;;;;4973242;28;20795;-80
2022/12/30 14:37:06;;;;;;;1.33;0.63;;;;;;;;;;4986347;28;20436;-81
2022/12/30 14:39:32;;;;;;;7.72;0.80;;;;;;;;;;4974991;28;20137;-82
2022/12/30 14:41:59;;;;;;;1.42;0.80;;;;;;;;;;4984639;28;20077;-82
2022/12/30 14:44:29;;;;;;;0.85;0.30;;;;;;;;;;4981662;28;20030;-82
2022/12/30 14:46:56;;;;;;;2.00;0.93;;;;;;;;;;4983018;28;20030;-82
2022/12/30 14:49:41;;;;;;;0.80;0.60;;;;;;;;;;4974533;28;20038;-83
2022/12/30 14:52:10;;;;;;;6.88;0.40;;;;;;;;;;4977697;28;20081;-85
2022/12/30 14:54:43;;;;;;;1.23;0.57;;;8.90;99.90;;;;;;4982801;28;20084;-84
2022/12/30 14:57:12;;;;;;;0.90;0.47;;;;;;;;;;4977698;28;20023;-84
2022/12/30 14:59:48;;;;;;;0.82;0.38;;;;;;;;;;4977015;28;20142;-86
2022/12/30 15:02:24;;;;;;;0.75;0.60;;;;;;;;;;4979738;28;20033;-84
2022/12/30 15:04:52;;;;;;;1.10;0.52;;;;;;;;;;4984858;28;20488;-81
2022/12/30 15:07:21;;;;;;;6.03;0.47;;;;;;;;;;4988618;28;20548;-84
2022/12/30 15:09:47;;;;;;;1.85;0.70;;;;;;;;;;4987208;28;20064;-82
2022/12/30 15:12:14;;;;;;;0.25;0.25;;;;;;;;;;4988315;28;20141;-82
2022/12/30 15:14:45;;;;;;;0.60;0.47;;;;;;;;;;4985900;28;20061;-83
2022/12/30 15:17:19;;;;;;;1.35;0.60;;;;;;;;;;4980226;28;20460;-82
2022/12/30 15:19:45;;;;;;;1.05;0.30;;;;;;;;;;4978525;28;20093;-81
2022/12/30 15:22:15;;;;;;;1.65;0.60;;;;;;;;;;4982532;28;20659;-84
2022/12/30 15:24:44;;;;;;;0.47;0.22;;;;;;;;;;4971677;28;20061;-83
2022/12/30 15:27:17;;;;;;;0.50;0.35;;;;;;;;;;4965469;28;20035;-82
2022/12/30 15:29:43;;;;;;;0.35;0.35;;;;;;;;;;4967457;28;20034;-81
2022/12/30 15:32:30;;;;;;;2.78;0.60;;;;;;;;;;4964393;28;20152;-80
2022/12/30 15:34:58;;;;;;;0.63;0.43;;;;;;;;;;4973379;28;20053;-79
2022/12/30 15:37:30;;;;;;;0.57;0.32;;;;;;;;;;4974030;28;20031;-81
2022/12/30 15:39:58;;;;;;;0.38;0.20;;;;;;;;;;4978536;28;20132;-83